sensor_id;sensor_type;location;lat;lon;timestamp;pressure;altitude;pressure_sealevel;temperature
76476;BMP280;65308;50.078;14.854;2023-10-19T00:01:22;98134.97;;;5.16
76476;BMP280;65308;50.078;14.854;2023-10-19T00:03:51;98137.28;;;5.14
76476;BMP280;65308;50.078;14.854;2023-10-19T00:06:18;98135.78;;;5.13
76476;BMP280;65308;50.078;14.854;2023-10-19T00:08:44;98124.91;;;5.11
76476;BMP280;65308;50.078;14.854;2023-10-19T00:11:11;98120.00;;;5.10
76476;BMP280;65308;50.078;14.854;2023-10-19T00:13:48;98122.75;;;5.06
76476;BMP280;65308;50.078;14.854;2023-10-19T00:16:16;98115.63;;;5.03
76476;BMP280;65308;50.078;14.854;2023-10-19T00:18:42;98113.84;;;5.00
76476;BMP280;65308;50.078;14.854;2023-10-19T00:21:09;98110.88;;;4.98
76476;BMP280;65308;50.078;14.854;2023-10-19T00:23:45;98096.63;;;4.92
76476;BMP280;65308;50.078;14.854;2023-10-19T00:26:15;98089.00;;;4.94
76476;BMP280;65308;50.078;14.854;2023-10-19T00:28:44;98071.19;;;4.94
76476;BMP280;65308;50.078;14.854;2023-10-19T00:31:19;98072.78;;;4.92
76476;BMP280;65308;50.078;14.854;2023-10-19T00:33:46;98070.22;;;4.88
76476;BMP280;65308;50.078;14.854;2023-10-19T00:36:13;98062.06;;;4.83
76476;BMP280;65308;50.078;14.854;2023-10-19T00:38:40;98061.84;;;4.77
76476;BMP280;65308;50.078;14.854;2023-10-19T00:41:13;98054.63;;;4.77
76476;BMP280;65308;50.078;14.854;2023-10-19T00:43:45;98035.66;;;4.79
76476;BMP280;65308;50.078;14.854;2023-10-19T00:46:16;98020.81;;;4.82
76476;BMP280;65308;50.078;14.854;2023-10-19T00:48:49;98019.22;;;4.84
76476;BMP280;65308;50.078;14.854;2023-10-19T00:51:21;98023.25;;;4.89
76476;BMP280;65308;50.078;14.854;2023-10-19T00:54:05;98028.13;;;4.90
76476;BMP280;65308;50.078;14.854;2023-10-19T00:56:36;98039.81;;;4.93
76476;BMP280;65308;50.078;14.854;2023-10-19T00:59:06;98045.13;;;4.93
76476;BMP280;65308;50.078;14.854;2023-10-19T01:01:40;98036.31;;;4.96
76476;BMP280;65308;50.078;14.854;2023-10-19T01:04:11;98038.84;;;4.99
76476;BMP280;65308;50.078;14.854;2023-10-19T01:06:40;98035.03;;;5.00
76476;BMP280;65308;50.078;14.854;2023-10-19T01:09:10;98040.88;;;5.08
76476;BMP280;65308;50.078;14.854;2023-10-19T01:11:40;98047.84;;;5.15
76476;BMP280;65308;50.078;14.854;2023-10-19T01:14:20;98051.47;;;5.21
76476;BMP280;65308;50.078;14.854;2023-10-19T01:16:48;98045.63;;;5.26
76476;BMP280;65308;50.078;14.854;2023-10-19T01:19:16;98037.56;;;5.30
76476;BMP280;65308;50.078;14.854;2023-10-19T01:21:44;98036.19;;;5.38
76476;BMP280;65308;50.078;14.854;2023-10-19T01:24:17;98048.78;;;5.46
76476;BMP280;65308;50.078;14.854;2023-10-19T01:26:47;98026.28;;;5.51
76476;BMP280;65308;50.078;14.854;2023-10-19T01:29:14;98029.97;;;5.54
76476;BMP280;65308;50.078;14.854;2023-10-19T01:31:42;98016.06;;;5.62
76476;BMP280;65308;50.078;14.854;2023-10-19T01:34:21;98028.78;;;5.67
76476;BMP280;65308;50.078;14.854;2023-10-19T01:36:48;98023.25;;;5.75
76476;BMP280;65308;50.078;14.854;2023-10-19T01:39:17;98011.97;;;5.83
76476;BMP280;65308;50.078;14.854;2023-10-19T01:41:44;98000.38;;;5.90
76476;BMP280;65308;50.078;14.854;2023-10-19T01:44:16;98006.16;;;5.98
76476;BMP280;65308;50.078;14.854;2023-10-19T01:46:46;98017.25;;;6.05
76476;BMP280;65308;50.078;14.854;2023-10-19T01:49:13;98017.03;;;6.12
76476;BMP280;65308;50.078;14.854;2023-10-19T01:51:39;98013.81;;;6.17
76476;BMP280;65308;50.078;14.854;2023-10-19T01:54:09;98010.00;;;6.19
76476;BMP280;65308;50.078;14.854;2023-10-19T01:56:36;98004.13;;;6.24
76476;BMP280;65308;50.078;14.854;2023-10-19T01:59:04;98005.91;;;6.27
76476;BMP280;65308;50.078;14.854;2023-10-19T02:01:31;97997.06;;;6.30
76476;BMP280;65308;50.078;14.854;2023-10-19T02:03:59;97993.56;;;6.33
76476;BMP280;65308;50.078;14.854;2023-10-19T02:06:26;97987.38;;;6.36
76476;BMP280;65308;50.078;14.854;2023-10-19T02:09:01;97994.19;;;6.37
76476;BMP280;65308;50.078;14.854;2023-10-19T02:11:36;97997.13;;;6.39
76476;BMP280;65308;50.078;14.854;2023-10-19T02:14:07;98000.06;;;6.41
76476;BMP280;65308;50.078;14.854;2023-10-19T02:16:39;98005.28;;;6.45
76476;BMP280;65308;50.078;14.854;2023-10-19T02:19:06;98005.91;;;6.49
76476;BMP280;65308;50.078;14.854;2023-10-19T02:21:31;98008.13;;;6.50
76476;BMP280;65308;50.078;14.854;2023-10-19T02:24:04;98004.88;;;6.55
76476;BMP280;65308;50.078;14.854;2023-10-19T02:26:30;98007.56;;;6.65
76476;BMP280;65308;50.078;14.854;2023-10-19T02:28:58;98002.31;;;6.74
76476;BMP280;65308;50.078;14.854;2023-10-19T02:31:25;97997.91;;;6.80
76476;BMP280;65308;50.078;14.854;2023-10-19T02:33:53;97985.47;;;6.86
76476;BMP280;65308;50.078;14.854;2023-10-19T02:36:24;97983.84;;;6.70
76476;BMP280;65308;50.078;14.854;2023-10-19T02:38:54;97980.03;;;6.80
76476;BMP280;65308;50.078;14.854;2023-10-19T02:41:19;97969.72;;;6.92
76476;BMP280;65308;50.078;14.854;2023-10-19T02:43:46;97967.50;;;6.99
76476;BMP280;65308;50.078;14.854;2023-10-19T02:46:17;97951.41;;;7.12
76476;BMP280;65308;50.078;14.854;2023-10-19T02:48:45;97939.16;;;7.24
76476;BMP280;65308;50.078;14.854;2023-10-19T02:51:12;97933.53;;;7.31
76476;BMP280;65308;50.078;14.854;2023-10-19T02:53:39;97920.41;;;7.37
76476;BMP280;65308;50.078;14.854;2023-10-19T02:56:12;97909.59;;;7.40
76476;BMP280;65308;50.078;14.854;2023-10-19T02:58:44;97901.31;;;7.38
76476;BMP280;65308;50.078;14.854;2023-10-19T03:01:17;97900.75;;;7.34
76476;BMP280;65308;50.078;14.854;2023-10-19T03:03:48;97894.22;;;7.35
76476;BMP280;65308;50.078;14.854;2023-10-19T03:06:18;97871.47;;;7.25
76476;BMP280;65308;50.078;14.854;2023-10-19T03:08:45;97848.41;;;7.03
76476;BMP280;65308;50.078;14.854;2023-10-19T03:11:11;97834.34;;;6.66
76476;BMP280;65308;50.078;14.854;2023-10-19T03:13:39;97840.25;;;6.61
76476;BMP280;65308;50.078;14.854;2023-10-19T03:16:06;97830.47;;;6.49
76476;BMP280;65308;50.078;14.854;2023-10-19T03:18:36;97838.03;;;6.69
76476;BMP280;65308;50.078;14.854;2023-10-19T03:21:01;97848.81;;;6.74
76476;BMP280;65308;50.078;14.854;2023-10-19T03:23:28;97851.34;;;6.87
76476;BMP280;65308;50.078;14.854;2023-10-19T03:25:55;97859.91;;;6.91
76476;BMP280;65308;50.078;14.854;2023-10-19T03:28:36;97871.28;;;7.10
76476;BMP280;65308;50.078;14.854;2023-10-19T03:31:03;97873.81;;;7.14
76476;BMP280;65308;50.078;14.854;2023-10-19T03:33:30;97870.72;;;7.24
76476;BMP280;65308;50.078;14.854;2023-10-19T03:35:59;97863.78;;;7.27
76476;BMP280;65308;50.078;14.854;2023-10-19T03:38:26;97869.97;;;7.33
76476;BMP280;65308;50.078;14.854;2023-10-19T03:40:59;97858.72;;;7.38
76476;BMP280;65308;50.078;14.854;2023-10-19T03:43:32;97845.56;;;7.44
76476;BMP280;65308;50.078;14.854;2023-10-19T03:46:02;97828.09;;;7.52
76476;BMP280;65308;50.078;14.854;2023-10-19T03:48:40;97822.31;;;7.63
76476;BMP280;65308;50.078;14.854;2023-10-19T03:51:08;97819.03;;;7.68
76476;BMP280;65308;50.078;14.854;2023-10-19T03:53:37;97830.41;;;7.77
76476;BMP280;65308;50.078;14.854;2023-10-19T03:56:09;97828.06;;;7.61
76476;BMP280;65308;50.078;14.854;2023-10-19T03:58:38;97811.28;;;7.37
76476;BMP280;65308;50.078;14.854;2023-10-19T04:01:08;97802.66;;;7.51
76476;BMP280;65308;50.078;14.854;2023-10-19T04:03:35;97798.81;;;7.52
76476;BMP280;65308;50.078;14.854;2023-10-19T04:06:02;97782.81;;;7.52
76476;BMP280;65308;50.078;14.854;2023-10-19T04:08:32;97784.78;;;7.42
76476;BMP280;65308;50.078;14.854;2023-10-19T04:11:02;97782.75;;;7.37
76476;BMP280;65308;50.078;14.854;2023-10-19T04:13:37;97773.84;;;7.40
76476;BMP280;65308;50.078;14.854;2023-10-19T04:16:04;97778.69;;;7.51
76476;BMP280;65308;50.078;14.854;2023-10-19T04:18:33;97775.72;;;7.58
76476;BMP280;65308;50.078;14.854;2023-10-19T04:21:03;97768.78;;;7.51
76476;BMP280;65308;50.078;14.854;2023-10-19T04:23:31;97772.59;;;7.60
76476;BMP280;65308;50.078;14.854;2023-10-19T04:26:00;97774.34;;;7.72
76476;BMP280;65308;50.078;14.854;2023-10-19T04:28:30;97772.00;;;7.65
76476;BMP280;65308;50.078;14.854;2023-10-19T04:31:03;97792.69;;;7.70
76476;BMP280;65308;50.078;14.854;2023-10-19T04:33:32;97785.56;;;7.76
76476;BMP280;65308;50.078;14.854;2023-10-19T04:36:00;97777.81;;;7.87
76476;BMP280;65308;50.078;14.854;2023-10-19T04:38:27;97769.66;;;7.91
76476;BMP280;65308;50.078;14.854;2023-10-19T04:41:05;97763.53;;;7.99
76476;BMP280;65308;50.078;14.854;2023-10-19T04:43:34;97770.81;;;7.99
76476;BMP280;65308;50.078;14.854;2023-10-19T04:46:08;97768.38;;;7.86
76476;BMP280;65308;50.078;14.854;2023-10-19T04:48:37;97762.53;;;7.97
76476;BMP280;65308;50.078;14.854;2023-10-19T04:51:06;97762.38;;;8.00
76476;BMP280;65308;50.078;14.854;2023-10-19T04:53:34;97766.44;;;8.11
76476;BMP280;65308;50.078;14.854;2023-10-19T04:56:04;97756.81;;;8.13
76476;BMP280;65308;50.078;14.854;2023-10-19T04:58:32;97753.06;;;8.20
76476;BMP280;65308;50.078;14.854;2023-10-19T05:00:58;97752.53;;;8.31
76476;BMP280;65308;50.078;14.854;2023-10-19T05:03:26;97758.47;;;8.35
76476;BMP280;65308;50.078;14.854;2023-10-19T05:05:54;97747.97;;;8.31
76476;BMP280;65308;50.078;14.854;2023-10-19T05:08:22;97757.00;;;8.34
76476;BMP280;65308;50.078;14.854;2023-10-19T05:10:51;97750.72;;;8.37
76476;BMP280;65308;50.078;14.854;2023-10-19T05:13:21;97747.28;;;8.45
76476;BMP280;65308;50.078;14.854;2023-10-19T05:15:48;97749.38;;;8.56
76476;BMP280;65308;50.078;14.854;2023-10-19T05:21:39;97740.38;;;8.15
76476;BMP280;65308;50.078;14.854;2023-10-19T05:24:07;97738.81;;;8.08
76476;BMP280;65308;50.078;14.854;2023-10-19T05:26:34;97748.81;;;8.13
76476;BMP280;65308;50.078;14.854;2023-10-19T05:29:00;97757.84;;;8.16
76476;BMP280;65308;50.078;14.854;2023-10-19T05:31:27;97757.66;;;8.19
76476;BMP280;65308;50.078;14.854;2023-10-19T05:33:56;97749.06;;;8.24
76476;BMP280;65308;50.078;14.854;2023-10-19T05:36:23;97740.53;;;8.35
76476;BMP280;65308;50.078;14.854;2023-10-19T05:38:51;97735.59;;;8.43
76476;BMP280;65308;50.078;14.854;2023-10-19T05:41:18;97732.09;;;8.52
76476;BMP280;65308;50.078;14.854;2023-10-19T05:43:46;97733.31;;;8.51
76476;BMP280;65308;50.078;14.854;2023-10-19T05:46:13;97743.06;;;8.54
76476;BMP280;65308;50.078;14.854;2023-10-19T05:48:43;97752.56;;;8.55
76476;BMP280;65308;50.078;14.854;2023-10-19T05:51:10;97749.25;;;8.60
76476;BMP280;65308;50.078;14.854;2023-10-19T05:53:39;97729.47;;;8.66
76476;BMP280;65308;50.078;14.854;2023-10-19T05:56:08;97729.28;;;8.70
76476;BMP280;65308;50.078;14.854;2023-10-19T05:58:36;97728.19;;;8.77
76476;BMP280;65308;50.078;14.854;2023-10-19T06:01:03;97733.91;;;8.84
76476;BMP280;65308;50.078;14.854;2023-10-19T06:03:30;97736.78;;;8.81
76476;BMP280;65308;50.078;14.854;2023-10-19T06:05:57;97736.84;;;8.86
76476;BMP280;65308;50.078;14.854;2023-10-19T06:08:23;97734.09;;;8.96
76476;BMP280;65308;50.078;14.854;2023-10-19T06:10:51;97731.72;;;8.98
76476;BMP280;65308;50.078;14.854;2023-10-19T06:13:19;97715.22;;;8.99
76476;BMP280;65308;50.078;14.854;2023-10-19T06:15:48;97719.00;;;9.07
76476;BMP280;65308;50.078;14.854;2023-10-19T06:18:14;97705.53;;;9.02
76476;BMP280;65308;50.078;14.854;2023-10-19T06:20:43;97702.97;;;9.22
76476;BMP280;65308;50.078;14.854;2023-10-19T06:23:10;97704.28;;;9.12
76476;BMP280;65308;50.078;14.854;2023-10-19T06:25:37;97692.94;;;9.17
76476;BMP280;65308;50.078;14.854;2023-10-19T06:28:05;97701.50;;;9.21
76476;BMP280;65308;50.078;14.854;2023-10-19T06:30:34;97697.28;;;9.14
76476;BMP280;65308;50.078;14.854;2023-10-19T06:33:03;97696.81;;;9.16
76476;BMP280;65308;50.078;14.854;2023-10-19T06:35:30;97690.44;;;9.13
76476;BMP280;65308;50.078;14.854;2023-10-19T06:37:58;97688.31;;;9.17
76476;BMP280;65308;50.078;14.854;2023-10-19T06:40:25;97701.50;;;9.06
76476;BMP280;65308;50.078;14.854;2023-10-19T06:42:54;97693.66;;;9.17
76476;BMP280;65308;50.078;14.854;2023-10-19T06:45:22;97697.66;;;9.07
76476;BMP280;65308;50.078;14.854;2023-10-19T06:47:52;97689.84;;;8.89
76476;BMP280;65308;50.078;14.854;2023-10-19T06:50:20;97698.38;;;9.08
76476;BMP280;65308;50.078;14.854;2023-10-19T06:52:47;97704.44;;;9.23
76476;BMP280;65308;50.078;14.854;2023-10-19T06:55:16;97700.19;;;9.31
76476;BMP280;65308;50.078;14.854;2023-10-19T06:57:48;97693.66;;;9.32
76476;BMP280;65308;50.078;14.854;2023-10-19T07:00:16;97694.25;;;9.42
76476;BMP280;65308;50.078;14.854;2023-10-19T07:02:45;97694.13;;;9.51
76476;BMP280;65308;50.078;14.854;2023-10-19T07:05:14;97684.81;;;9.61
76476;BMP280;65308;50.078;14.854;2023-10-19T07:07:44;97679.53;;;9.67
76476;BMP280;65308;50.078;14.854;2023-10-19T07:10:12;97685.94;;;9.55
76476;BMP280;65308;50.078;14.854;2023-10-19T07:12:43;97680.59;;;9.55
76476;BMP280;65308;50.078;14.854;2023-10-19T07:15:10;97687.41;;;9.56
76476;BMP280;65308;50.078;14.854;2023-10-19T07:17:39;97693.63;;;9.68
76476;BMP280;65308;50.078;14.854;2023-10-19T07:20:07;97705.72;;;9.83
76476;BMP280;65308;50.078;14.854;2023-10-19T07:22:48;97715.09;;;9.94
76476;BMP280;65308;50.078;14.854;2023-10-19T07:25:15;97715.47;;;10.07
76476;BMP280;65308;50.078;14.854;2023-10-19T07:27:45;97705.47;;;10.22
76476;BMP280;65308;50.078;14.854;2023-10-19T07:30:13;97700.69;;;10.32
76476;BMP280;65308;50.078;14.854;2023-10-19T07:32:40;97699.28;;;10.36
76476;BMP280;65308;50.078;14.854;2023-10-19T07:35:08;97696.84;;;10.39
76476;BMP280;65308;50.078;14.854;2023-10-19T07:37:35;97701.53;;;10.44
76476;BMP280;65308;50.078;14.854;2023-10-19T07:40:04;97694.06;;;10.53
76476;BMP280;65308;50.078;14.854;2023-10-19T07:42:31;97683.91;;;10.31
76476;BMP280;65308;50.078;14.854;2023-10-19T07:45:00;97692.59;;;10.26
76476;BMP280;65308;50.078;14.854;2023-10-19T07:47:27;97683.34;;;10.01
76476;BMP280;65308;50.078;14.854;2023-10-19T07:49:53;97676.94;;;9.73
76476;BMP280;65308;50.078;14.854;2023-10-19T07:52:22;97683.25;;;9.75
76476;BMP280;65308;50.078;14.854;2023-10-19T07:54:49;97674.88;;;9.82
76476;BMP280;65308;50.078;14.854;2023-10-19T07:57:17;97669.19;;;9.95
76476;BMP280;65308;50.078;14.854;2023-10-19T07:59:45;97672.03;;;9.92
76476;BMP280;65308;50.078;14.854;2023-10-19T08:05:53;97653.56;;;9.88
76476;BMP280;65308;50.078;14.854;2023-10-19T08:08:20;97644.81;;;9.87
76476;BMP280;65308;50.078;14.854;2023-10-19T08:10:50;97646.34;;;9.94
76476;BMP280;65308;50.078;14.854;2023-10-19T08:13:16;97655.88;;;10.01
76476;BMP280;65308;50.078;14.854;2023-10-19T08:15:43;97644.34;;;10.15
76476;BMP280;65308;50.078;14.854;2023-10-19T08:18:10;97646.94;;;9.63
76476;BMP280;65308;50.078;14.854;2023-10-19T08:20:37;97652.66;;;9.71
76476;BMP280;65308;50.078;14.854;2023-10-19T08:23:06;97656.16;;;9.82
76476;BMP280;65308;50.078;14.854;2023-10-19T08:25:33;97651.50;;;9.98
76476;BMP280;65308;50.078;14.854;2023-10-19T08:28:00;97657.78;;;9.95
76476;BMP280;65308;50.078;14.854;2023-10-19T08:30:27;97665.69;;;10.09
76476;BMP280;65308;50.078;14.854;2023-10-19T08:32:54;97674.16;;;10.28
76476;BMP280;65308;50.078;14.854;2023-10-19T08:35:25;97684.06;;;10.48
76476;BMP280;65308;50.078;14.854;2023-10-19T08:37:53;97691.06;;;10.66
76476;BMP280;65308;50.078;14.854;2023-10-19T08:40:21;97680.91;;;10.76
76476;BMP280;65308;50.078;14.854;2023-10-19T08:42:48;97674.00;;;10.64
76476;BMP280;65308;50.078;14.854;2023-10-19T08:45:16;97670.06;;;10.59
76476;BMP280;65308;50.078;14.854;2023-10-19T08:47:44;97667.09;;;10.83
76476;BMP280;65308;50.078;14.854;2023-10-19T08:50:16;97662.13;;;11.07
76476;BMP280;65308;50.078;14.854;2023-10-19T08:52:46;97656.69;;;11.33
76476;BMP280;65308;50.078;14.854;2023-10-19T08:55:15;97665.06;;;11.52
76476;BMP280;65308;50.078;14.854;2023-10-19T08:57:44;97669.25;;;11.59
76476;BMP280;65308;50.078;14.854;2023-10-19T09:00:15;97664.91;;;11.78
76476;BMP280;65308;50.078;14.854;2023-10-19T09:02:43;97653.28;;;11.93
76476;BMP280;65308;50.078;14.854;2023-10-19T09:05:11;97659.56;;;11.73
76476;BMP280;65308;50.078;14.854;2023-10-19T09:07:45;97644.53;;;11.98
76476;BMP280;65308;50.078;14.854;2023-10-19T09:10:16;97639.94;;;12.21
76476;BMP280;65308;50.078;14.854;2023-10-19T09:12:44;97642.63;;;12.26
76476;BMP280;65308;50.078;14.854;2023-10-19T09:15:21;97637.00;;;12.24
76476;BMP280;65308;50.078;14.854;2023-10-19T09:17:48;97643.09;;;12.36
76476;BMP280;65308;50.078;14.854;2023-10-19T09:20:20;97644.31;;;12.41
76476;BMP280;65308;50.078;14.854;2023-10-19T09:22:52;97637.50;;;12.45
76476;BMP280;65308;50.078;14.854;2023-10-19T09:25:28;97632.13;;;12.40
76476;BMP280;65308;50.078;14.854;2023-10-19T09:27:56;97624.56;;;12.33
76476;BMP280;65308;50.078;14.854;2023-10-19T09:30:24;97628.22;;;12.46
76476;BMP280;65308;50.078;14.854;2023-10-19T09:32:51;97639.94;;;12.55
76476;BMP280;65308;50.078;14.854;2023-10-19T09:35:20;97638.22;;;12.57
76476;BMP280;65308;50.078;14.854;2023-10-19T09:37:47;97645.28;;;12.66
76476;BMP280;65308;50.078;14.854;2023-10-19T09:40:14;97648.22;;;12.73
76476;BMP280;65308;50.078;14.854;2023-10-19T09:42:43;97646.25;;;12.85
76476;BMP280;65308;50.078;14.854;2023-10-19T09:45:18;97636.97;;;12.97
76476;BMP280;65308;50.078;14.854;2023-10-19T09:47:50;97628.91;;;12.92
76476;BMP280;65308;50.078;14.854;2023-10-19T09:50:17;97627.44;;;13.02
76476;BMP280;65308;50.078;14.854;2023-10-19T09:52:44;97630.06;;;13.19
76476;BMP280;65308;50.078;14.854;2023-10-19T09:55:19;97622.00;;;13.19
76476;BMP280;65308;50.078;14.854;2023-10-19T09:57:51;97617.09;;;13.17
76476;BMP280;65308;50.078;14.854;2023-10-19T10:00:21;97610.25;;;13.27
76476;BMP280;65308;50.078;14.854;2023-10-19T10:02:50;97608.13;;;13.04
76476;BMP280;65308;50.078;14.854;2023-10-19T10:05:45;97612.81;;;12.97
76476;BMP280;65308;50.078;14.854;2023-10-19T10:08:30;97610.66;;;12.40
76476;BMP280;65308;50.078;14.854;2023-10-19T10:10:58;97610.41;;;12.55
76476;BMP280;65308;50.078;14.854;2023-10-19T10:13:38;97609.66;;;12.54
76476;BMP280;65308;50.078;14.854;2023-10-19T10:16:06;97602.63;;;12.40
76476;BMP280;65308;50.078;14.854;2023-10-19T10:18:35;97598.94;;;12.09
76476;BMP280;65308;50.078;14.854;2023-10-19T10:21:05;97595.03;;;12.04
76476;BMP280;65308;50.078;14.854;2023-10-19T10:23:40;97593.34;;;12.13
76476;BMP280;65308;50.078;14.854;2023-10-19T10:26:08;97607.75;;;12.43
76476;BMP280;65308;50.078;14.854;2023-10-19T10:28:34;97598.66;;;12.74
76476;BMP280;65308;50.078;14.854;2023-10-19T10:31:13;97599.59;;;12.99
76476;BMP280;65308;50.078;14.854;2023-10-19T10:33:42;97589.53;;;13.17
76476;BMP280;65308;50.078;14.854;2023-10-19T10:36:10;97598.81;;;13.21
76476;BMP280;65308;50.078;14.854;2023-10-19T10:38:38;97603.09;;;13.41
76476;BMP280;65308;50.078;14.854;2023-10-19T10:41:04;97604.25;;;13.57
76476;BMP280;65308;50.078;14.854;2023-10-19T10:43:47;97595.81;;;13.78
76476;BMP280;65308;50.078;14.854;2023-10-19T10:46:16;97597.97;;;14.20
76476;BMP280;65308;50.078;14.854;2023-10-19T10:48:43;97574.41;;;14.57
76476;BMP280;65308;50.078;14.854;2023-10-19T10:51:19;97580.56;;;14.46
76476;BMP280;65308;50.078;14.854;2023-10-19T10:53:47;97575.88;;;14.52
76476;BMP280;65308;50.078;14.854;2023-10-19T10:56:15;97568.47;;;14.83
76476;BMP280;65308;50.078;14.854;2023-10-19T10:58:41;97570.41;;;15.25
76476;BMP280;65308;50.078;14.854;2023-10-19T11:01:08;97568.06;;;15.54
76476;BMP280;65308;50.078;14.854;2023-10-19T11:03:37;97564.19;;;15.82
76476;BMP280;65308;50.078;14.854;2023-10-19T11:06:05;97560.50;;;15.66
76476;BMP280;65308;50.078;14.854;2023-10-19T11:08:33;97556.03;;;15.55
76476;BMP280;65308;50.078;14.854;2023-10-19T11:11:05;97553.38;;;15.68
76476;BMP280;65308;50.078;14.854;2023-10-19T11:13:33;97555.09;;;16.11
76476;BMP280;65308;50.078;14.854;2023-10-19T11:16:03;97547.19;;;15.87
76476;BMP280;65308;50.078;14.854;2023-10-19T11:18:32;97551.50;;;15.95
76476;BMP280;65308;50.078;14.854;2023-10-19T11:21:03;97541.84;;;16.00
76476;BMP280;65308;50.078;14.854;2023-10-19T11:23:39;97540.19;;;16.10
76476;BMP280;65308;50.078;14.854;2023-10-19T11:26:06;97532.44;;;15.74
76476;BMP280;65308;50.078;14.854;2023-10-19T11:28:33;97522.50;;;15.83
76476;BMP280;65308;50.078;14.854;2023-10-19T11:31:14;97518.03;;;15.85
76476;BMP280;65308;50.078;14.854;2023-10-19T11:33:42;97513.50;;;15.61
76476;BMP280;65308;50.078;14.854;2023-10-19T11:36:11;97503.47;;;15.30
76476;BMP280;65308;50.078;14.854;2023-10-19T11:38:42;97493.53;;;15.06
76476;BMP280;65308;50.078;14.854;2023-10-19T11:41:09;97493.13;;;14.96
76476;BMP280;65308;50.078;14.854;2023-10-19T11:43:36;97483.22;;;15.23
76476;BMP280;65308;50.078;14.854;2023-10-19T11:46:03;97482.06;;;15.50
76476;BMP280;65308;50.078;14.854;2023-10-19T11:48:32;97474.34;;;15.87
76476;BMP280;65308;50.078;14.854;2023-10-19T11:50:59;97479.09;;;15.67
76476;BMP280;65308;50.078;14.854;2023-10-19T11:53:31;97471.84;;;15.62
76476;BMP280;65308;50.078;14.854;2023-10-19T11:56:00;97472.50;;;15.95
76476;BMP280;65308;50.078;14.854;2023-10-19T11:58:29;97476.66;;;15.96
76476;BMP280;65308;50.078;14.854;2023-10-19T12:00:58;97473.38;;;16.16
76476;BMP280;65308;50.078;14.854;2023-10-19T12:03:24;97473.97;;;16.22
76476;BMP280;65308;50.078;14.854;2023-10-19T12:05:51;97483.72;;;16.25
76476;BMP280;65308;50.078;14.854;2023-10-19T12:08:21;97483.63;;;16.31
76476;BMP280;65308;50.078;14.854;2023-10-19T12:10:50;97494.97;;;16.16
76476;BMP280;65308;50.078;14.854;2023-10-19T12:13:17;97495.88;;;15.60
76476;BMP280;65308;50.078;14.854;2023-10-19T12:15:44;97498.06;;;15.62
76476;BMP280;65308;50.078;14.854;2023-10-19T12:18:18;97492.06;;;15.69
76476;BMP280;65308;50.078;14.854;2023-10-19T12:20:45;97492.09;;;15.82
76476;BMP280;65308;50.078;14.854;2023-10-19T12:23:12;97483.50;;;15.97
76476;BMP280;65308;50.078;14.854;2023-10-19T12:25:39;97489.56;;;16.16
76476;BMP280;65308;50.078;14.854;2023-10-19T12:28:09;97478.75;;;16.30
76476;BMP280;65308;50.078;14.854;2023-10-19T12:30:40;97485.16;;;16.13
76476;BMP280;65308;50.078;14.854;2023-10-19T12:33:07;97483.19;;;16.14
76476;BMP280;65308;50.078;14.854;2023-10-19T12:35:36;97484.97;;;15.98
76476;BMP280;65308;50.078;14.854;2023-10-19T12:38:11;97478.00;;;16.03
76476;BMP280;65308;50.078;14.854;2023-10-19T12:40:45;97479.47;;;16.04
76476;BMP280;65308;50.078;14.854;2023-10-19T12:43:14;97482.28;;;15.98
76476;BMP280;65308;50.078;14.854;2023-10-19T12:45:41;97481.25;;;16.14
76476;BMP280;65308;50.078;14.854;2023-10-19T12:48:09;97481.63;;;16.32
76476;BMP280;65308;50.078;14.854;2023-10-19T12:50:37;97477.25;;;16.42
76476;BMP280;65308;50.078;14.854;2023-10-19T12:53:03;97483.72;;;16.39
76476;BMP280;65308;50.078;14.854;2023-10-19T12:55:35;97483.69;;;16.65
76476;BMP280;65308;50.078;14.854;2023-10-19T12:58:04;97484.66;;;16.89
76476;BMP280;65308;50.078;14.854;2023-10-19T13:00:36;97476.97;;;16.93
76476;BMP280;65308;50.078;14.854;2023-10-19T13:03:07;97475.66;;;17.07
76476;BMP280;65308;50.078;14.854;2023-10-19T13:05:38;97474.75;;;16.57
76476;BMP280;65308;50.078;14.854;2023-10-19T13:08:07;97474.00;;;16.70
76476;BMP280;65308;50.078;14.854;2023-10-19T13:10:35;97466.75;;;16.51
76476;BMP280;65308;50.078;14.854;2023-10-19T13:13:07;97459.63;;;16.54
76476;BMP280;65308;50.078;14.854;2023-10-19T13:15:39;97456.56;;;16.71
76476;BMP280;65308;50.078;14.854;2023-10-19T13:18:08;97454.41;;;16.56
76476;BMP280;65308;50.078;14.854;2023-10-19T13:20:36;97450.19;;;16.21
76476;BMP280;65308;50.078;14.854;2023-10-19T13:23:05;97444.19;;;16.15
76476;BMP280;65308;50.078;14.854;2023-10-19T13:25:33;97442.41;;;16.31
76476;BMP280;65308;50.078;14.854;2023-10-19T13:28:12;97439.69;;;16.44
76476;BMP280;65308;50.078;14.854;2023-10-19T13:30:42;97440.47;;;16.65
76476;BMP280;65308;50.078;14.854;2023-10-19T13:33:10;97429.28;;;16.82
76476;BMP280;65308;50.078;14.854;2023-10-19T13:35:37;97422.66;;;16.83
76476;BMP280;65308;50.078;14.854;2023-10-19T13:38:04;97420.34;;;16.87
76476;BMP280;65308;50.078;14.854;2023-10-19T13:40:31;97419.34;;;16.98
76476;BMP280;65308;50.078;14.854;2023-10-19T13:42:58;97414.63;;;16.91
76476;BMP280;65308;50.078;14.854;2023-10-19T13:45:26;97402.59;;;16.44
76476;BMP280;65308;50.078;14.854;2023-10-19T13:47:55;97385.09;;;16.11
76476;BMP280;65308;50.078;14.854;2023-10-19T13:50:22;97391.16;;;15.78
76476;BMP280;65308;50.078;14.854;2023-10-19T13:52:50;97393.72;;;15.57
76476;BMP280;65308;50.078;14.854;2023-10-19T13:55:17;97394.56;;;15.78
76476;BMP280;65308;50.078;14.854;2023-10-19T13:57:46;97399.25;;;15.91
76476;BMP280;65308;50.078;14.854;2023-10-19T14:00:14;97390.72;;;15.87
76476;BMP280;65308;50.078;14.854;2023-10-19T14:02:49;97388.16;;;15.68
76476;BMP280;65308;50.078;14.854;2023-10-19T14:05:17;97389.50;;;15.48
76476;BMP280;65308;50.078;14.854;2023-10-19T14:07:46;97398.38;;;15.43
76476;BMP280;65308;50.078;14.854;2023-10-19T14:10:13;97394.34;;;15.36
76476;BMP280;65308;50.078;14.854;2023-10-19T14:12:42;97392.56;;;15.39
76476;BMP280;65308;50.078;14.854;2023-10-19T14:15:12;97393.13;;;15.18
76476;BMP280;65308;50.078;14.854;2023-10-19T14:17:39;97397.63;;;14.97
76476;BMP280;65308;50.078;14.854;2023-10-19T14:20:07;97379.63;;;14.54
76476;BMP280;65308;50.078;14.854;2023-10-19T14:22:40;97381.28;;;14.57